Time;durP1;ratioP1;P1;durP2;ratioP2;P2;SDS_P1;SDS_P2;PMS_P1;PMS_P2;Temp;Humidity;BMP_temperature;BMP_pressure;BME280_temperature;BME280_humidity;BME280_pressure;Samples;Min_cycle;Max_cycle;Signal;HPM_P1;HPM_P2
2023/02/25 00:01:07;;;;;;;0.20;0.20;;;;;;;5.46;91.18;99050.31;4970467;28;20381;-69
2023/02/25 00:03:33;;;;;;;0.30;0.30;;;;;;;5.49;90.59;99046.94;4971712;28;20149;-69
2023/02/25 00:06:04;;;;;;;0.30;0.30;;;;;;;5.44;91.06;99045.34;4965073;28;20033;-70
2023/02/25 00:08:29;;;;;;;0.30;0.30;;;;;;;5.49;91.18;99049.59;4971688;28;20027;-70
2023/02/25 00:10:59;;;;;;;0.20;0.20;;;;;;;5.41;91.12;99048.75;4984991;28;20039;-70
2023/02/25 00:13:25;;;;;;;0.20;0.20;;;;;;;5.60;90.63;99055.06;4969214;28;20038;-70
2023/02/25 00:15:50;;;;;;;0.22;0.22;;;;;;;5.34;91.27;99048.63;4971768;28;20022;-70
2023/02/25 00:18:16;;;;;;;0.17;0.17;;;;;;;5.61;91.25;99053.97;4968649;28;20035;-70
2023/02/25 00:20:41;;;;;;;0.25;0.25;;;;;;;5.64;89.78;99056.69;4983621;28;20514;-70
2023/02/25 00:23:07;;;;;;;0.20;0.20;;;;;;;5.57;90.75;99053.13;4962107;28;20072;-70
2023/02/25 00:25:33;;;;;;;0.20;0.20;;;;;;;5.43;89.95;99062.50;4962833;28;20118;-70
2023/02/25 00:27:58;;;;;;;0.30;0.30;;;;;;;5.49;90.43;99063.72;4972643;28;20039;-70
2023/02/25 00:30:24;;;;;;;0.20;0.20;;;;;;;5.56;89.99;99068.38;4961524;28;20094;-70
2023/02/25 00:32:51;;;;;;;0.20;0.20;;;;;;;5.59;89.87;99072.25;4987266;28;20554;-70
2023/02/25 00:35:16;;;;;;;0.82;0.82;;;;;;;5.61;89.66;99067.31;4963248;28;20039;-69
2023/02/25 00:37:42;;;;;;;0.20;0.20;;;;;;;5.53;89.89;99080.53;4986216;28;20031;-70
2023/02/25 00:40:13;;;;;;;0.20;0.20;;;;;;;5.48;90.34;99082.75;4971777;28;20118;-70
2023/02/25 00:42:40;;;;;;;0.20;0.20;;;;;;;5.53;90.27;99076.34;4972223;28;20031;-70
2023/02/25 00:45:06;;;;;;;0.20;0.20;;;;;;;5.50;89.47;99077.81;4953650;28;20069;-70
2023/02/25 00:47:32;;;;;;;0.20;0.20;;;;;;;5.50;89.59;99083.94;4968995;28;20117;-70
2023/02/25 00:49:57;;;;;;;0.20;0.20;;;;;;;5.38;89.67;99078.78;4986975;28;20117;-69
2023/02/25 00:52:23;;;;;;;1.95;0.50;;;;;;;5.34;89.52;99093.22;4986568;28;20032;-70
2023/02/25 00:54:48;;;;;;;1.33;0.95;;;;;;;5.40;89.04;99089.88;4971256;28;20113;-70
2023/02/25 00:57:14;;;;;;;0.30;0.30;;;;;;;5.23;90.39;99097.63;4983605;28;20412;-70
2023/02/25 00:59:39;;;;;;;0.20;0.20;;;;;;;5.18;90.67;99098.72;4966056;28;20162;-70
2023/02/25 01:02:05;;;;;;;0.20;0.20;;;;;;;5.15;90.41;99098.66;4961504;28;20165;-70
2023/02/25 01:04:30;;;;;;;0.20;0.20;;;;;;;5.20;89.85;99099.13;4972086;28;20031;-69
2023/02/25 01:06:56;;;;;;;0.20;0.20;;;;;;;5.28;90.17;99103.41;4982072;28;20314;-69
2023/02/25 01:09:21;;;;;;;0.20;0.20;;;;;;;5.26;90.04;99102.25;4983590;28;20035;-69
2023/02/25 01:11:48;;;;;;;0.90;0.60;;;;;;;5.35;89.16;99094.75;4986810;28;20039;-69
2023/02/25 01:14:18;;;;;;;0.30;0.30;;;;;;;5.35;88.78;99103.53;4987128;28;20085;-69
2023/02/25 01:16:44;;;;;;;0.20;0.20;;;;;;;5.51;89.14;99108.75;4971058;28;20494;-69
2023/02/25 01:19:19;;;;;;;0.20;0.20;;;;;;;5.51;88.00;99106.06;4984460;28;20415;-69
2023/02/25 01:21:50;;;;;;;0.20;0.20;;;;;;;5.46;87.74;99128.50;4981389;28;20026;-70
2023/02/25 01:24:24;;;;;;;0.20;0.20;;;;;;;5.57;87.97;99123.31;4965591;28;20027;-70
2023/02/25 01:26:54;;;;;;;0.40;0.40;;;;;;;5.52;87.10;99120.19;4962774;28;20041;-70
2023/02/25 01:29:31;;;;;;;0.20;0.20;;;;;;;5.36;88.39;99131.00;4967121;28;20113;-69
2023/02/25 01:31:59;;;;;;;0.20;0.20;;;;;;;5.36;88.86;99128.34;4986799;28;20125;-69
2023/02/25 01:34:27;;;;;;;0.30;0.30;;;;;;;5.53;87.88;99139.28;4969844;28;20403;-70
2023/02/25 01:36:53;;;;;;;0.28;0.28;;;;;;;5.41;88.35;99139.47;4958970;28;20046;-70
2023/02/25 01:39:21;;;;;;;0.20;0.20;;;;;;;5.42;87.32;99137.56;4963387;28;20035;-70
2023/02/25 01:41:50;;;;;;;0.25;0.25;;;;;;;5.39;87.39;99147.06;4966905;28;20031;-69
2023/02/25 01:44:28;;;;;;;0.20;0.20;;;;;;;5.32;88.20;99149.59;4944400;28;20038;-70
2023/02/25 01:46:54;;;;;;;0.20;0.20;;;;;;;5.53;87.46;99153.75;4959928;28;20031;-70
2023/02/25 01:49:42;;;;;;;0.45;0.45;;;;;;;5.53;88.09;99156.44;4985123;28;20030;-69
2023/02/25 01:52:12;;;;;;;0.70;0.43;;;;;;;5.45;86.75;99155.53;4963772;28;20184;-69
2023/02/25 01:54:39;;;;;;;0.20;0.20;;;;;;;5.41;86.87;99163.50;4982006;28;20050;-70
2023/02/25 01:57:09;;;;;;;0.30;0.30;;;;;;;5.31;86.91;99165.97;4985110;28;20035;-69
2023/02/25 01:59:36;;;;;;;0.20;0.20;;;;;;;5.29;87.25;99168.22;4981027;28;20093;-69
2023/02/25 02:02:02;;;;;;;0.30;0.30;;;;;;;5.15;88.05;99168.00;4986237;28;20037;-69
2023/02/25 02:04:30;;;;;;;0.30;0.30;;;;;;;5.26;87.95;99175.06;4944755;28;20074;-69
2023/02/25 02:06:57;;;;;;;0.32;0.32;;;;;;;5.27;87.76;99178.50;4981930;28;20102;-69
2023/02/25 02:09:28;;;;;;;0.20;0.20;;;;;;;5.31;87.26;99185.44;4945927;28;20035;-70
2023/02/25 02:11:58;;;;;;;0.30;0.30;;;;;;;5.37;86.73;99186.69;4982221;28;20042;-69
2023/02/25 02:14:28;;;;;;;0.25;0.25;;;;;;;5.49;87.18;99183.84;4982632;28;20050;-70
2023/02/25 02:17:28;;;;;;;0.20;0.20;;;;;;;5.28;87.10;99196.81;4982307;28;20045;-70
2023/02/25 02:19:59;;;;;;;0.55;0.43;;;;;;;5.21;88.20;99196.69;4967861;28;20070;-69
2023/02/25 02:22:53;;;;;;;0.20;0.20;;;;;;;4.91;89.59;99205.66;4986355;28;20035;-69
2023/02/25 02:25:41;;;;;;;0.20;0.20;;;;;;;5.09;89.41;99210.19;4969366;28;20030;-69
2023/02/25 02:28:23;;;;;;;0.20;0.20;;;;;;;5.24;89.00;99211.22;4960465;28;20058;-69
2023/02/25 02:31:05;;;;;;;0.20;0.20;;;;;;;5.15;89.00;99208.78;4976166;28;20591;-70
2023/02/25 02:33:43;;;;;;;0.30;0.30;;;;;;;5.02;88.75;99212.75;4976742;28;20356;-69
2023/02/25 02:36:27;;;;;;;0.20;0.20;;;;;;;5.10;89.31;99221.63;4966671;28;20549;-69
2023/02/25 02:39:07;;;;;;;0.35;0.35;;;;;;;5.28;88.74;99217.41;4983175;28;20078;-69
2023/02/25 02:41:34;;;;;;;0.20;0.20;;;;;;;5.24;88.71;99222.69;4967976;28;20042;-70
2023/02/25 02:44:27;;;;;;;0.30;0.30;;;;;;;5.21;88.65;99225.25;4987279;28;20073;-69
2023/02/25 02:47:05;;;;;;;0.30;0.30;;;;;;;5.16;88.96;99226.34;4971874;28;20039;-69
2023/02/25 02:49:39;;;;;;;0.20;0.20;;;;;;;5.24;88.69;99232.56;4968858;28;20035;-69
2023/02/25 02:52:38;;;;;;;0.20;0.20;;;;;;;5.36;87.90;99224.41;4971275;28;20028;-69
2023/02/25 02:55:21;;;;;;;0.30;0.30;;;;;;;5.41;88.19;99237.44;4969751;28;20042;-69
2023/02/25 02:57:56;;;;;;;0.20;0.20;;;;;;;5.24;88.00;99244.03;4983712;28;20122;-69
2023/02/25 03:00:27;;;;;;;0.20;0.20;;;;;;;5.16;88.14;99247.69;4985018;28;20034;-69
2023/02/25 03:03:03;;;;;;;0.20;0.20;;;;;;;5.12;87.59;99256.75;4974726;28;20114;-69
2023/02/25 03:05:33;;;;;;;0.45;0.40;;;;;;;5.05;86.94;99268.03;4974362;28;20480;-69
2023/02/25 03:08:06;;;;;;;0.30;0.30;;;;;;;5.05;86.52;99262.69;4966774;28;20488;-70
2023/02/25 03:10:33;;;;;;;0.30;0.30;;;;;;;4.84;86.44;99272.19;4970878;28;20062;-69
2023/02/25 03:13:02;;;;;;;0.20;0.20;;;;;;;4.87;86.09;99261.59;4971859;28;20125;-70
2023/02/25 03:15:30;;;;;;;0.30;0.30;;;;;;;5.09;85.48;99273.47;4957129;28;20479;-69
2023/02/25 03:18:05;;;;;;;0.40;0.40;;;;;;;5.07;85.91;99281.78;4970193;28;20039;-69
2023/02/25 03:20:43;;;;;;;0.20;0.20;;;;;;;5.36;84.90;99286.53;4952871;28;20042;-69
2023/02/25 03:23:14;;;;;;;0.65;0.60;;;;;;;5.24;83.92;99297.41;4988890;28;20031;-69
2023/02/25 03:25:59;;;;;;;0.30;0.30;;;;;;;5.29;83.91;99302.44;4972004;28;20027;-69
2023/02/25 03:28:32;;;;;;;0.45;0.32;;;;;;;5.38;83.53;99296.88;4970218;28;20102;-69
2023/02/25 03:31:10;;;;;;;0.30;0.30;;;;;;;5.42;82.95;99303.81;4958495;28;20411;-69
2023/02/25 03:33:48;;;;;;;0.25;0.25;;;;;;;5.35;81.42;99309.03;4977505;28;20447;-69
2023/02/25 03:37:15;;;;;;;0.30;0.30;;;;;;;5.38;81.41;99305.66;4972277;28;20115;-69
2023/02/25 03:39:45;;;;;;;0.20;0.20;;;;;;;5.30;81.39;99309.31;4961070;28;20058;-69
2023/02/25 03:42:17;;;;;;;0.38;0.38;;;;;;;5.24;81.11;99309.97;4970309;28;20117;-69
2023/02/25 03:44:48;;;;;;;0.35;0.35;;;;;;;5.34;80.70;99317.41;4963055;28;20062;-69
2023/02/25 03:47:16;;;;;;;0.20;0.20;;;;;;;5.45;80.61;99319.16;4980046;28;20054;-70
2023/02/25 03:49:53;;;;;;;0.22;0.22;;;;;;;5.38;79.73;99332.34;5001467;28;20030;-69
2023/02/25 03:52:22;;;;;;;0.20;0.20;;;;;;;5.27;80.55;99338.59;4969710;28;20034;-69
2023/02/25 03:54:51;;;;;;;0.20;0.20;;;;;;;5.26;80.98;99345.06;4970487;28;20114;-69
2023/02/25 03:57:18;;;;;;;0.38;0.38;;;;;;;5.39;81.06;99341.91;4969640;28;20035;-69
2023/02/25 03:59:44;;;;;;;0.30;0.30;;;;;;;5.49;80.49;99344.00;4984853;28;20066;-68
2023/02/25 04:02:11;;;;;;;0.20;0.20;;;;;;;5.45;80.07;99348.50;4972870;28;20039;-69
2023/02/25 04:04:37;;;;;;;0.30;0.30;;;;;;;5.52;80.17;99349.78;4971606;28;20030;-68
2023/02/25 04:07:02;;;;;;;0.20;0.20;;;;;;;5.55;79.09;99349.06;4985528;28;20031;-68
2023/02/25 04:09:28;;;;;;;0.35;0.35;;;;;;;5.28;79.81;99340.91;4984468;28;20118;-68
2023/02/25 04:11:55;;;;;;;0.20;0.20;;;;;;;5.12;79.94;99350.91;4988219;28;20047;-69
2023/02/25 04:14:22;;;;;;;0.22;0.22;;;;;;;5.23;79.85;99349.19;4970567;28;20027;-70
2023/02/25 04:16:48;;;;;;;0.20;0.20;;;;;;;5.22;79.51;99366.34;4956422;28;20049;-68
2023/02/25 04:19:13;;;;;;;0.20;0.20;;;;;;;5.19;79.76;99358.25;4951484;28;20415;-70
2023/02/25 04:21:41;;;;;;;0.30;0.30;;;;;;;5.55;79.33;99359.72;4980887;28;20031;-68
2023/02/25 04:24:06;;;;;;;0.20;0.20;;;;;;;5.42;79.01;99367.88;4966780;28;20041;-69
2023/02/25 04:26:34;;;;;;;0.20;0.20;;;;;;;5.35;79.74;99367.75;4958475;28;20471;-71
2023/02/25 04:28:59;;;;;;;4.22;0.80;;;;;;;5.22;80.50;99368.25;4987197;28;20104;-68
2023/02/25 04:31:25;;;;;;;0.20;0.20;;;;;;;5.16;80.00;99369.63;4964695;28;20407;-69
2023/02/25 04:33:50;;;;;;;0.30;0.30;;;;;;;5.28;80.18;99378.25;4978643;28;20042;-70
2023/02/25 04:36:34;;;;;;;0.52;0.52;;;;;;;5.16;80.38;99383.75;4971169;28;20049;-68
2023/02/25 04:39:03;;;;;;;0.40;0.40;;;;;;;5.21;80.24;99383.47;4968975;28;20042;-68
2023/02/25 04:41:31;;;;;;;0.57;0.50;;;;;;;5.12;81.23;99380.25;4971612;28;20667;-69
2023/02/25 04:43:57;;;;;;;0.40;0.40;;;;;;;5.20;80.29;99373.94;4988115;28;20045;-68
2023/02/25 04:46:23;;;;;;;0.30;0.30;;;;;;;5.21;80.80;99372.00;4971706;28;20031;-69
2023/02/25 04:48:49;;;;;;;0.22;0.22;;;;;;;5.08;81.57;99390.06;4972067;28;20037;-68
2023/02/25 04:51:14;;;;;;;0.30;0.30;;;;;;;5.00;82.38;99384.91;4969923;28;20026;-68
2023/02/25 04:53:40;;;;;;;0.68;0.68;;;;;;;4.92;83.29;99375.97;4968943;28;20026;-68
2023/02/25 04:56:08;;;;;;;0.20;0.20;;;;;;;5.16;82.42;99383.75;4985402;28;20494;-68
2023/02/25 04:58:35;;;;;;;0.20;0.20;;;;;;;4.83;84.29;99387.97;4970892;28;20109;-68
2023/02/25 05:01:01;;;;;;;0.20;0.20;;;;;;;4.67;84.58;99395.22;4984418;28;20039;-68
2023/02/25 05:03:28;;;;;;;0.20;0.20;;;;;;;4.49;86.08;99386.84;4966066;28;20058;-67
2023/02/25 05:05:54;;;;;;;0.20;0.20;;;;;;;4.82;85.87;99391.78;4962648;28;20026;-67
2023/02/25 05:08:20;;;;;;;0.30;0.30;;;;;;;4.76;85.43;99377.16;4968281;28;20035;-70
2023/02/25 05:10:45;;;;;;;0.25;0.25;;;;;;;4.71;85.63;99396.06;4972752;28;20097;-68
2023/02/25 05:13:11;;;;;;;0.30;0.30;;;;;;;4.56;86.09;99394.97;4960422;28;20042;-69
2023/02/25 05:15:36;;;;;;;0.30;0.30;;;;;;;4.42;87.08;99398.09;4938280;28;20046;-68
2023/02/25 05:18:05;;;;;;;0.30;0.30;;;;;;;4.59;86.66;99389.72;4965107;28;20074;-68
2023/02/25 05:20:30;;;;;;;0.30;0.30;;;;;;;4.49;87.39;99395.56;4980454;28;20027;-69
2023/02/25 05:22:55;;;;;;;0.22;0.22;;;;;;;4.60;87.61;99390.50;4950675;28;20452;-68
2023/02/25 05:25:21;;;;;;;0.50;0.50;;;;;;;4.66;86.55;99394.47;4966191;28;20118;-68
2023/02/25 05:27:46;;;;;;;0.25;0.25;;;;;;;4.59;87.18;99394.28;4986685;28;20457;-68
2023/02/25 05:30:13;;;;;;;1.85;0.40;;;;;;;4.59;87.33;99410.28;4971166;28;20038;-68
2023/02/25 05:32:38;;;;;;;0.40;0.40;;;;;;;4.57;87.98;99413.28;4975812;28;20588;-70
2023/02/25 05:35:07;;;;;;;0.20;0.20;;;;;;;4.67;87.84;99411.97;4983066;28;20035;-68
2023/02/25 05:37:34;;;;;;;0.30;0.30;;;;;;;4.88;86.78;99420.47;4984986;28;20465;-69
2023/02/25 05:40:20;;;;;;;0.28;0.28;;;;;;;4.87;86.18;99416.28;4972433;28;20121;-69
2023/02/25 05:42:48;;;;;;;0.30;0.30;;;;;;;4.78;86.56;99410.31;4948880;28;20051;-72
2023/02/25 05:45:14;;;;;;;0.30;0.30;;;;;;;4.92;86.17;99413.31;4934186;29;20047;-68
2023/02/25 05:47:39;;;;;;;0.30;0.30;;;;;;;4.69;87.00;99419.63;4933883;29;20039;-69
2023/02/25 05:50:06;;;;;;;0.20;0.20;;;;;;;4.78;86.72;99417.56;4947446;29;20515;-68
2023/02/25 05:52:31;;;;;;;0.52;0.52;;;;;;;4.81;86.41;99427.53;4953502;28;20053;-70
2023/02/25 05:54:56;;;;;;;0.30;0.30;;;;;;;4.88;85.89;99433.06;4933851;29;20134;-68
2023/02/25 05:57:22;;;;;;;0.20;0.20;;;;;;;4.64;86.93;99431.34;4950298;28;20436;-69
2023/02/25 05:59:49;;;;;;;0.30;0.30;;;;;;;4.42;87.49;99432.72;4933300;28;20046;-69
2023/02/25 06:02:14;;;;;;;0.30;0.30;;;;;;;4.45;87.79;99433.94;4946278;29;20191;-69
2023/02/25 06:04:40;;;;;;;0.20;0.20;;;;;;;4.57;87.73;99436.50;4934251;29;20031;-68
2023/02/25 06:07:05;;;;;;;0.20;0.20;;;;;;;4.70;87.77;99448.63;4950443;28;20191;-68
2023/02/25 06:09:33;;;;;;;0.30;0.30;;;;;;;4.87;86.66;99452.81;4947299;28;20057;-68
2023/02/25 06:11:59;;;;;;;0.20;0.20;;;;;;;4.92;86.83;99466.66;4948759;28;20031;-68
2023/02/25 06:14:25;;;;;;;0.57;0.57;;;;;;;4.70;88.07;99461.19;4934082;29;20043;-69
2023/02/25 06:16:55;;;;;;;0.20;0.20;;;;;;;4.70;88.46;99477.97;4933977;28;20047;-69
2023/02/25 06:19:21;;;;;;;0.20;0.20;;;;;;;4.86;88.44;99483.28;4954411;28;20089;-69
2023/02/25 06:21:46;;;;;;;0.38;0.38;;;;;;;4.87;88.66;99490.94;4971529;28;20484;-69
2023/02/25 06:24:12;;;;;;;0.50;0.50;;;;;;;4.72;89.60;99489.06;4971669;28;20033;-72
2023/02/25 06:26:40;;;;;;;0.20;0.20;;;;;;;4.46;90.85;99497.53;4984163;28;20063;-69
2023/02/25 06:29:06;;;;;;;0.20;0.20;;;;;;;4.75;90.04;99491.03;4972407;28;20401;-70
2023/02/25 06:31:33;;;;;;;0.20;0.20;;;;;;;4.98;90.05;99499.16;4967229;28;20034;-69
2023/02/25 06:33:58;;;;;;;0.30;0.30;;;;;;;5.13;88.74;99509.81;4970664;28;20170;-70
2023/02/25 06:36:24;;;;;;;0.20;0.20;;;;;;;4.91;88.41;99507.78;4976436;28;20125;-68
2023/02/25 06:38:49;;;;;;;0.20;0.20;;;;;;;4.77;89.60;99509.34;4968581;28;20970;-69
2023/02/25 06:41:18;;;;;;;0.22;0.22;;;;;;;4.75;89.62;99525.69;4971220;28;20038;-69
2023/02/25 06:43:51;;;;;;;0.20;0.20;;;;;;;4.61;90.11;99530.66;4964129;28;20041;-69
2023/02/25 06:46:21;;;;;;;0.20;0.20;;;;;;;4.63;89.54;99525.00;4970927;28;20046;-69
2023/02/25 06:48:47;;;;;;;0.47;0.47;;;;;;;4.66;89.67;99533.09;4968285;28;20034;-69
2023/02/25 06:51:13;;;;;;;0.20;0.20;;;;;;;4.60;90.04;99531.78;4966209;28;20027;-68
2023/02/25 06:53:40;;;;;;;0.30;0.30;;;;;;;4.54;91.18;99549.13;4968872;28;20125;-68
2023/02/25 06:56:09;;;;;;;0.20;0.20;;;;;;;4.52;90.71;99551.38;4969959;28;20026;-68
2023/02/25 06:58:36;;;;;;;0.30;0.30;;;;;;;4.61;90.35;99551.97;4979485;28;20034;-68
2023/02/25 07:01:09;;;;;;;0.20;0.20;;;;;;;4.62;89.78;99558.88;4966392;28;20540;-68
2023/02/25 07:03:35;;;;;;;0.20;0.20;;;;;;;4.49;90.36;99573.38;4964277;28;20089;-68
2023/02/25 07:06:01;;;;;;;0.28;0.28;;;;;;;4.29;92.09;99566.34;4971057;28;20476;-68
2023/02/25 07:08:26;;;;;;;0.30;0.30;;;;;;;4.13;94.65;99576.19;4963156;28;20163;-70
2023/02/25 07:10:51;;;;;;;0.20;0.20;;;;;;;4.50;93.47;99577.59;4969016;28;20074;-68
2023/02/25 07:13:17;;;;;;;0.20;0.20;;;;;;;4.32;93.95;99573.66;4985346;28;20038;-68
2023/02/25 07:15:42;;;;;;;0.25;0.25;;;;;;;4.09;94.09;99584.06;4985751;28;20471;-70
2023/02/25 07:18:08;;;;;;;0.30;0.30;;;;;;;4.29;94.52;99579.69;4983953;28;20047;-69
2023/02/25 07:20:34;;;;;;;0.30;0.30;;;;;;;4.45;93.17;99578.59;4968720;28;20058;-67
2023/02/25 07:23:03;;;;;;;0.30;0.30;;;;;;;4.27;92.57;99590.69;4964625;28;20031;-69
2023/02/25 07:25:28;;;;;;;0.30;0.30;;;;;;;4.38;93.26;99590.97;4959386;28;20105;-69
2023/02/25 07:27:54;;;;;;;0.30;0.30;;;;;;;4.54;91.53;99589.91;4984837;28;20118;-69
2023/02/25 07:30:19;;;;;;;0.30;0.30;;;;;;;4.26;91.49;99594.44;4969187;28;20030;-69
2023/02/25 07:32:45;;;;;;;0.20;0.20;;;;;;;3.99;92.49;99599.75;4973771;28;20492;-68
2023/02/25 07:35:10;;;;;;;0.30;0.30;;;;;;;4.20;92.69;99603.03;4969587;28;20033;-70
2023/02/25 07:37:36;;;;;;;0.20;0.20;;;;;;;4.19;92.68;99598.81;4962959;28;20078;-69
2023/02/25 07:40:04;;;;;;;0.20;0.20;;;;;;;4.36;91.84;99614.50;4966392;28;20130;-68
2023/02/25 07:42:29;;;;;;;0.40;0.40;;;;;;;4.27;91.54;99612.00;4970468;28;20030;-68
2023/02/25 07:44:57;;;;;;;0.30;0.30;;;;;;;4.35;91.32;99620.97;4970145;28;20022;-69
2023/02/25 07:47:23;;;;;;;0.30;0.30;;;;;;;4.50;90.76;99625.56;4969860;28;20118;-67
2023/02/25 07:49:48;;;;;;;0.30;0.30;;;;;;;4.62;90.16;99620.19;4979513;28;20122;-68
2023/02/25 07:52:14;;;;;;;0.30;0.30;;;;;;;4.73;89.72;99626.56;4986003;28;20035;-70
2023/02/25 07:54:40;;;;;;;0.30;0.30;;;;;;;4.66;89.28;99646.94;4971335;28;20054;-70
2023/02/25 07:57:05;;;;;;;0.20;0.20;;;;;;;4.60;88.94;99643.75;4971897;28;20039;-68
2023/02/25 07:59:32;;;;;;;0.30;0.30;;;;;;;4.36;88.76;99652.59;4973965;28;20412;-68
2023/02/25 08:01:59;;;;;;;0.20;0.20;;;;;;;4.48;89.27;99659.78;4967902;28;20051;-70
2023/02/25 08:04:24;;;;;;;0.20;0.20;;;;;;;4.73;89.13;99658.56;4964260;28;20031;-71
2023/02/25 08:06:50;;;;;;;0.50;0.50;;;;;;;4.62;88.78;99660.16;4968080;28;20542;-68
2023/02/25 08:09:16;;;;;;;0.30;0.30;;;;;;;4.54;89.06;99663.75;4969491;28;20133;-68
2023/02/25 08:11:43;;;;;;;0.25;0.25;;;;;;;4.66;87.93;99665.59;4981932;28;20026;-72
2023/02/25 08:14:09;;;;;;;0.22;0.22;;;;;;;4.61;88.36;99673.84;4968349;28;20771;-68
2023/02/25 08:16:36;;;;;;;0.30;0.30;;;;;;;4.65;88.03;99686.13;4968350;28;20038;-69
2023/02/25 08:19:03;;;;;;;0.60;0.60;;;;;;;4.50;88.64;99684.19;4972930;28;20507;-70
2023/02/25 08:21:30;;;;;;;0.30;0.30;;;;;;;4.64;88.13;99694.47;4966104;28;20442;-68
2023/02/25 08:23:56;;;;;;;0.20;0.20;;;;;;;4.74;88.46;99696.66;4985031;28;20102;-68
2023/02/25 08:26:23;;;;;;;0.30;0.30;;;;;;;4.88;88.21;99708.50;4963065;28;20404;-70
2023/02/25 08:28:50;;;;;;;0.30;0.30;;;;;;;4.62;88.97;99723.38;4973746;28;20026;-68
2023/02/25 08:31:15;;;;;;;0.30;0.30;;;;;;;4.76;88.10;99726.44;4971620;28;20082;-68
2023/02/25 08:33:44;;;;;;;0.30;0.30;;;;;;;4.76;89.26;99729.09;4971184;28;20653;-68
2023/02/25 08:36:16;;;;;;;0.30;0.30;;;;;;;5.13;87.59;99725.19;4986860;28;20186;-69
2023/02/25 08:38:41;;;;;;;0.38;0.38;;;;;;;4.64;90.39;99737.91;4962331;28;20058;-68
2023/02/25 08:41:08;;;;;;;0.28;0.28;;;;;;;4.56;92.15;99741.50;4966868;28;20034;-69
2023/02/25 08:43:35;;;;;;;0.20;0.20;;;;;;;4.19;95.37;99738.09;4972093;28;20026;-68
2023/02/25 08:46:00;;;;;;;0.30;0.30;;;;;;;4.30;95.10;99733.09;4986774;28;20034;-68
2023/02/25 08:48:30;;;;;;;0.30;0.30;;;;;;;4.10;95.50;99736.69;4956031;28;20031;-68
2023/02/25 08:50:55;;;;;;;0.20;0.20;;;;;;;4.12;95.30;99737.13;4967874;28;20038;-68
2023/02/25 08:53:22;;;;;;;0.20;0.20;;;;;;;4.19;95.15;99740.00;4983158;28;20033;-69
2023/02/25 08:55:47;;;;;;;0.20;0.20;;;;;;;4.57;94.52;99743.03;4969804;28;20085;-69
2023/02/25 08:58:13;;;;;;;0.20;0.20;;;;;;;5.01;93.85;99747.34;4963521;28;20047;-71
2023/02/25 09:00:39;;;;;;;0.30;0.30;;;;;;;5.30;93.36;99744.31;4964597;28;20053;-71
2023/02/25 09:03:04;;;;;;;0.30;0.30;;;;;;;5.23;92.72;99754.81;4979609;28;20035;-71
2023/02/25 09:05:30;;;;;;;0.20;0.20;;;;;;;5.32;91.88;99755.41;4968046;28;20157;-68
2023/02/25 09:07:56;;;;;;;0.30;0.30;;;;;;;5.31;90.81;99756.53;4971178;28;20031;-68
2023/02/25 09:10:23;;;;;;;0.30;0.30;;;;;;;5.14;92.33;99775.53;4978195;28;20459;-72
2023/02/25 09:12:49;;;;;;;0.20;0.20;;;;;;;5.12;91.91;99771.63;4974781;28;20047;-67
2023/02/25 09:15:14;;;;;;;0.20;0.20;;;;;;;4.96;93.08;99781.47;4967463;28;20037;-69
2023/02/25 09:17:40;;;;;;;0.20;0.20;;;;;;;4.95;93.57;99791.38;4973737;28;20113;-68
2023/02/25 09:20:06;;;;;;;0.20;0.20;;;;;;;5.06;93.09;99792.44;4982645;28;20032;-70
2023/02/25 09:22:33;;;;;;;0.40;0.40;;;;;;;5.01;93.09;99799.91;4967812;28;20419;-72
2023/02/25 09:25:02;;;;;;;0.22;0.22;;;;;;;5.22;92.70;99805.84;4964850;28;20031;-69
2023/02/25 09:27:28;;;;;;;0.30;0.30;;;;;;;5.17;91.87;99814.06;4964783;28;20090;-68
2023/02/25 09:29:53;;;;;;;0.30;0.30;;;;;;;5.05;92.14;99817.56;4964442;28;20129;-73
2023/02/25 09:32:20;;;;;;;0.20;0.20;;;;;;;4.85;92.79;99826.53;4983579;28;20039;-68
2023/02/25 09:34:48;;;;;;;0.20;0.20;;;;;;;4.80;93.32;99832.06;4952082;28;20122;-69
2023/02/25 09:37:18;;;;;;;0.40;0.40;;;;;;;4.91;93.66;99835.84;4969007;28;20082;-68
2023/02/25 09:39:45;;;;;;;0.30;0.30;;;;;;;5.11;92.98;99834.88;4967443;28;20031;-69
2023/02/25 09:42:22;;;;;;;0.40;0.40;;;;;;;5.07;92.08;99839.34;4971739;28;20038;-70
2023/02/25 09:44:51;;;;;;;0.25;0.25;;;;;;;5.00;92.35;99849.81;4966025;28;20033;-68
2023/02/25 09:47:37;;;;;;;0.30;0.30;;;;;;;5.05;92.23;99841.56;4971887;28;20050;-71
2023/02/25 09:50:06;;;;;;;0.20;0.20;;;;;;;5.10;93.12;99849.34;4982269;28;20034;-70
2023/02/25 09:52:40;;;;;;;0.20;0.20;;;;;;;5.05;92.30;99851.50;4964026;28;20069;-68
2023/02/25 09:55:20;;;;;;;0.20;0.20;;;;;;;5.12;92.72;99859.69;4965332;28;20038;-70
2023/02/25 09:57:56;;;;;;;0.30;0.30;;;;;;;5.17;91.66;99862.88;4956200;28;20042;-72
2023/02/25 10:00:22;;;;;;;0.20;0.20;;;;;;;5.29;92.03;99862.06;4950369;28;20712;-70
2023/02/25 10:02:54;;;;;;;0.20;0.20;;;;;;;5.47;92.30;99876.72;4965283;28;20146;-70
2023/02/25 10:06:02;;;;;;;0.30;0.30;;;;;;;5.70;91.22;99874.25;4951345;28;20530;-69
2023/02/25 10:09:02;;;;;;;0.35;0.35;;;;;;;5.96;91.07;99879.97;4955739;28;20113;-69
2023/02/25 10:11:33;;;;;;;0.20;0.20;;;;;;;6.02;89.77;99892.72;4969029;28;20039;-70
2023/02/25 10:14:17;;;;;;;0.25;0.25;;;;;;;6.22;88.55;99886.38;4968063;28;20049;-70
2023/02/25 10:16:59;;;;;;;0.20;0.20;;;;;;;6.36;87.49;99885.94;4967309;28;20412;-70
2023/02/25 10:19:48;;;;;;;0.38;0.38;;;;;;;6.68;85.94;99887.44;4974876;28;20039;-70
2023/02/25 10:22:25;;;;;;;0.20;0.20;;;;;;;6.50;83.22;99898.88;4966130;28;20035;-70
2023/02/25 10:25:14;;;;;;;0.20;0.20;;;;;;;6.73;84.26;99905.94;4969208;28;20032;-69
2023/02/25 10:27:46;;;;;;;0.20;0.20;;;;;;;6.57;81.74;99907.06;4971933;28;20043;-69
2023/02/25 10:30:22;;;;;;;0.20;0.20;;;;;;;6.47;80.95;99915.59;4944235;28;20035;-69
2023/02/25 10:32:48;;;;;;;0.20;0.20;;;;;;;6.45;79.66;99920.50;4975428;28;20066;-69
2023/02/25 10:35:21;;;;;;;0.17;0.17;;;;;;;6.27;78.78;99914.75;4960549;28;20019;-69
2023/02/25 10:37:47;;;;;;;0.15;0.15;;;;;;;6.09;76.83;99924.19;4957832;28;20066;-69
2023/02/25 10:40:16;;;;;;;0.22;0.22;;;;;;;6.33;76.60;99924.03;4962269;28;20042;-69
2023/02/25 10:42:45;;;;;;;0.30;0.30;;;;;;;6.54;74.53;99929.94;4974790;28;20027;-69
2023/02/25 10:45:12;;;;;;;0.20;0.20;;;;;;;6.16;74.40;99940.41;4967791;28;20050;-69
2023/02/25 10:47:40;;;;;;;0.40;0.40;;;;;;;6.22;73.80;99944.38;4944922;28;20321;-69
2023/02/25 10:50:27;;;;;;;0.82;0.50;;;;;;;6.07;73.67;99948.59;4960494;28;20034;-69
2023/02/25 10:53:02;;;;;;;0.28;0.28;;;;;;;5.86;74.27;99956.03;4967421;28;20423;-69
2023/02/25 10:55:50;;;;;;;0.25;0.25;;;;;;;5.97;75.11;99956.31;4968772;28;20030;-69
2023/02/25 10:58:24;;;;;;;0.20;0.20;;;;;;;5.35;76.97;99965.59;4967153;28;20427;-68
2023/02/25 11:01:14;;;;;;;0.82;0.77;;;;;;;5.27;78.49;99960.38;4968549;28;20042;-68
2023/02/25 11:03:45;;;;;;;0.20;0.20;;;;;;;5.53;79.02;99964.22;4968981;28;20384;-69
2023/02/25 11:06:22;;;;;;;0.28;0.28;;;;;;;5.33;78.49;99975.84;4953014;28;20071;-68
2023/02/25 11:08:48;;;;;;;0.22;0.22;;;;;;;5.36;78.32;99972.50;4970081;28;20034;-68
2023/02/25 11:11:20;;;;;;;0.20;0.20;;;;;;;5.29;77.65;99982.19;4972996;28;20026;-69
2023/02/25 11:14:00;;;;;;;0.50;0.50;;;;;;;5.41;79.34;99990.19;4983643;28;20035;-69
2023/02/25 11:16:27;;;;;;;0.20;0.20;;;;;;;5.46;78.93;99993.38;4967893;28;20142;-69
2023/02/25 11:18:56;;;;;;;0.30;0.30;;;;;;;5.45;78.29;99996.41;4974647;28;20062;-69
2023/02/25 11:21:32;;;;;;;0.30;0.30;;;;;;;5.62;77.20;99995.34;4965462;28;20484;-69
2023/02/25 11:24:01;;;;;;;0.22;0.22;;;;;;;5.70;77.87;99994.44;4960964;28;20035;-68
2023/02/25 11:26:31;;;;;;;0.20;0.20;;;;;;;5.65;76.57;99995.47;4985790;28;20025;-69
2023/02/25 11:29:01;;;;;;;0.20;0.20;;;;;;;5.83;74.71;100003.97;4956031;28;20039;-69
2023/02/25 11:31:35;;;;;;;0.25;0.25;;;;;;;6.02;73.83;100015.63;4968289;28;20034;-68
2023/02/25 11:34:05;;;;;;;0.20;0.20;;;;;;;5.96;73.53;100006.28;4968297;28;20550;-69
2023/02/25 11:36:36;;;;;;;0.30;0.30;;;;;;;6.15;72.91;100008.34;4969168;28;20039;-69
2023/02/25 11:39:26;;;;;;;0.20;0.20;;;;;;;6.19;72.29;100009.22;4980239;28;20229;-69
2023/02/25 11:41:54;;;;;;;0.20;0.20;;;;;;;6.59;72.44;100014.47;4999181;28;20435;-69
2023/02/25 11:44:43;;;;;;;0.20;0.20;;;;;;;6.49;71.67;100007.72;4969433;28;20298;-68
2023/02/25 11:47:12;;;;;;;0.20;0.20;;;;;;;6.43;70.19;100011.78;4965234;28;20507;-69
2023/02/25 11:50:03;;;;;;;0.20;0.20;;;;;;;6.68;67.50;100018.53;4948840;28;20039;-68
2023/02/25 11:52:43;;;;;;;0.20;0.20;;;;;;;6.50;66.41;100020.00;4970362;28;20062;-69
2023/02/25 11:55:39;;;;;;;0.20;0.20;;;;;;;6.41;67.78;100027.38;4969502;28;20027;-69